Time,TemperatureF,DewpointF,PressureIn,WindDirection,WindDirectionDegrees,WindSpeedMPH,WindSpeedGustMPH,Humidity,HourlyPrecipIn,Conditions,Clouds,dailyrainin,SoftwareType,DateUTC
2013-01-08 00:02:00,23.9,9.1,32.37,NNE,31,0.0,0.0,53,0.00,NA,NA,-99.99,wxupload 3.4,2013-01-08 05:02:00,
2013-01-08 00:04:00,23.9,9.1,32.37,NNE,31,0.0,0.0,53,0.00,NA,NA,-99.99,wxupload 3.4,2013-01-08 05:04:00,
2013-01-08 00:06:00,24.1,9.3,32.37,NNE,31,0.0,0.0,53,0.00,NA,NA,-99.99,wxupload 3.4,2013-01-08 05:06:00,
2013-01-08 00:08:00,24.1,9.3,32.37,NNE,31,0.0,0.0,53,0.00,NA,NA,-99.99,wxupload 3.4,2013-01-08 05:08:00,
2013-01-08 00:13:00,23.7,9.0,32.37,NNE,31,0.0,0.0,53,0.00,NA,NA,-99.99,wxupload 3.4,2013-01-08 05:13:00,
2013-01-08 00:20:00,23.4,8.6,32.37,NNE,31,0.0,0.0,53,0.00,NA,NA,-99.99,wxupload 3.4,2013-01-08 05:20:00,
2013-01-08 00:26:00,23.2,8.5,32.37,NNE,31,0.0,0.0,53,0.00,NA,NA,-99.99,wxupload 3.4,2013-01-08 05:26:00,
2013-01-08 00:31:00,23.4,8.6,32.37,NNE,31,0.0,0.0,53,0.00,NA,NA,-99.99,wxupload 3.4,2013-01-08 05:31:00,
2013-01-08 00:38:00,23.2,8.5,32.37,NNE,31,0.0,0.0,53,0.00,NA,NA,-99.99,wxupload 3.4,2013-01-08 05:38:00,
2013-01-08 00:44:00,23.0,8.3,32.37,NNE,31,0.0,0.0,53,0.00,NA,NA,-99.99,wxupload 3.4,2013-01-08 05:44:00,
2013-01-08 00:50:00,23.0,8.3,32.37,NNE,31,0.0,0.0,53,0.00,NA,NA,-99.99,wxupload 3.4,2013-01-08 05:50:00,
2013-01-08 00:56:00,22.8,8.1,32.37,NNE,31,0.0,0.0,53,0.00,NA,NA,-99.99,wxupload 3.4,2013-01-08 05:56:00,
2013-01-08 01:02:00,22.8,8.1,32.37,NNE,31,0.0,0.0,53,0.00,NA,NA,-99.99,wxupload 3.4,2013-01-08 06:02:00,
2013-01-08 01:08:00,22.6,8.0,32.37,NNE,31,0.0,0.0,53,0.00,NA,NA,-99.99,wxupload 3.4,2013-01-08 06:08:00,
2013-01-08 01:14:00,22.6,8.0,32.37,NNE,31,0.0,0.0,53,0.00,NA,NA,-99.99,wxupload 3.4,2013-01-08 06:14:00,
2013-01-08 01:20:00,22.6,8.0,32.34,NNE,31,0.0,0.0,53,0.00,NA,NA,-99.99,wxupload 3.4,2013-01-08 06:20:00,
2013-01-08 01:26:00,22.5,7.8,32.34,NNE,31,0.0,0.0,53,0.00,NA,NA,-99.99,wxupload 3.4,2013-01-08 06:26:00,
2013-01-08 01:31:00,22.3,7.6,32.34,NNE,31,0.0,0.0,53,0.00,NA,NA,-99.99,wxupload 3.4,2013-01-08 06:31:00,
2013-01-08 01:38:00,22.3,7.6,32.34,NNE,31,0.0,0.0,53,0.00,NA,NA,-99.99,wxupload 3.4,2013-01-08 06:38:00,
2013-01-08 01:44:00,22.1,7.4,32.34,NNE,31,0.0,0.0,53,0.00,NA,NA,-99.99,wxupload 3.4,2013-01-08 06:44:00,
2013-01-08 01:50:00,22.1,7.4,32.34,NNE,31,0.0,0.0,53,0.00,NA,NA,-99.99,wxupload 3.4,2013-01-08 06:50:00,
2013-01-08 01:56:00,22.1,7.4,32.34,NNE,31,0.0,0.0,53,0.00,NA,NA,-99.99,wxupload 3.4,2013-01-08 06:56:00,
2013-01-08 02:02:00,22.1,7.4,32.34,NNE,31,0.0,0.0,53,0.00,NA,NA,-99.99,wxupload 3.4,2013-01-08 07:02:00,
2013-01-08 02:08:00,21.9,7.3,32.34,NNE,31,0.0,0.0,53,0.00,NA,NA,-99.99,wxupload 3.4,2013-01-08 07:08:00,
2013-01-08 02:14:00,21.9,7.3,32.34,NNE,31,0.0,0.0,53,0.00,NA,NA,-99.99,wxupload 3.4,2013-01-08 07:14:00,
2013-01-08 02:20:00,21.9,7.3,32.34,NNE,31,0.0,0.0,53,0.00,NA,NA,-99.99,wxupload 3.4,2013-01-08 07:20:00,
2013-01-08 02:26:00,22.1,7.9,32.34,NNE,31,0.0,0.0,54,0.00,NA,NA,-99.99,wxupload 3.4,2013-01-08 07:26:00,
2013-01-08 02:31:00,22.1,7.4,32.34,NNE,31,0.0,0.0,53,0.00,NA,NA,-99.99,wxupload 3.4,2013-01-08 07:31:00,
2013-01-08 02:38:00,22.1,7.4,32.34,NNE,31,0.0,0.0,53,0.00,NA,NA,-99.99,wxupload 3.4,2013-01-08 07:38:00,
2013-01-08 02:43:00,21.9,7.3,32.34,NNE,31,0.0,0.0,53,0.00,NA,NA,-99.99,wxupload 3.4,2013-01-08 07:43:00,
2013-01-08 02:50:00,21.7,7.1,32.34,NNE,31,0.0,0.0,53,0.00,NA,NA,-99.99,wxupload 3.4,2013-01-08 07:50:00,
2013-01-08 02:56:00,21.6,6.9,32.34,NNE,31,0.0,0.0,53,0.00,NA,NA,-99.99,wxupload 3.4,2013-01-08 07:56:00,
2013-01-08 03:01:00,21.4,6.8,32.34,NNE,31,0.0,0.0,53,0.00,NA,NA,-99.99,wxupload 3.4,2013-01-08 08:01:00,
2013-01-08 03:08:00,21.4,6.8,32.34,NNE,31,0.0,0.0,53,0.00,NA,NA,-99.99,wxupload 3.4,2013-01-08 08:08:00,
2013-01-08 03:14:00,21.4,6.8,32.34,NNE,31,0.0,0.0,53,0.00,NA,NA,-99.99,wxupload 3.4,2013-01-08 08:14:00,
2013-01-08 03:19:00,21.2,7.0,32.34,NNE,31,0.0,0.0,54,0.00,NA,NA,-99.99,wxupload 3.4,2013-01-08 08:19:00,
2013-01-08 03:26:00,20.8,6.7,32.34,NNE,31,0.0,0.0,54,0.00,NA,NA,-99.99,wxupload 3.4,2013-01-08 08:26:00,
2013-01-08 03:32:00,20.8,6.7,32.34,NNE,31,0.0,0.0,54,0.00,NA,NA,-99.99,wxupload 3.4,2013-01-08 08:32:00,
2013-01-08 03:38:00,20.8,6.7,32.34,NNE,31,0.0,0.0,54,0.00,NA,NA,-99.99,wxupload 3.4,2013-01-08 08:38:00,
2013-01-08 03:44:00,20.8,6.7,32.34,NNE,31,0.0,0.0,54,0.00,NA,NA,-99.99,wxupload 3.4,2013-01-08 08:44:00,
2013-01-08 03:50:00,20.7,6.5,32.34,NNE,31,0.0,0.0,54,0.00,NA,NA,-99.99,wxupload 3.4,2013-01-08 08:50:00,
2013-01-08 03:56:00,20.5,6.3,32.34,NNE,31,0.0,0.0,54,0.00,NA,NA,-99.99,wxupload 3.4,2013-01-08 08:56:00,
2013-01-08 04:02:00,20.5,6.3,32.34,NNE,31,0.0,0.0,54,0.00,NA,NA,-99.99,wxupload 3.4,2013-01-08 09:02:00,
2013-01-08 04:08:00,20.5,6.3,32.34,NNE,31,0.0,0.0,54,0.00,NA,NA,-99.99,wxupload 3.4,2013-01-08 09:08:00,
2013-01-08 04:14:00,20.7,6.5,32.34,NNE,31,0.0,0.0,54,0.00,NA,NA,-99.99,wxupload 3.4,2013-01-08 09:14:00,
2013-01-08 04:20:00,20.5,6.3,32.34,NNE,31,0.0,0.0,54,0.00,NA,NA,-99.99,wxupload 3.4,2013-01-08 09:20:00,
2013-01-08 04:26:00,20.1,6.0,32.34,NNE,31,0.0,0.0,54,0.00,NA,NA,-99.99,wxupload 3.4,2013-01-08 09:26:00,
2013-01-08 04:32:00,19.9,5.8,32.34,NNE,31,0.0,0.0,54,0.00,NA,NA,-99.99,wxupload 3.4,2013-01-08 09:32:00,
2013-01-08 04:37:00,19.9,5.8,32.34,NNE,31,0.0,0.0,54,0.00,NA,NA,-99.99,wxupload 3.4,2013-01-08 09:37:00,
2013-01-08 04:44:00,19.9,5.8,32.34,NNE,31,0.0,0.0,54,0.00,NA,NA,-99.99,wxupload 3.4,2013-01-08 09:44:00,
2013-01-08 04:50:00,19.9,5.8,32.34,NNE,31,0.0,0.0,54,0.00,NA,NA,-99.99,wxupload 3.4,2013-01-08 09:50:00,
2013-01-08 04:55:00,19.9,6.2,32.34,NNE,31,0.0,0.0,55,0.00,NA,NA,-99.99,wxupload 3.4,2013-01-08 09:55:00,
2013-01-08 05:02:00,20.3,6.6,32.34,NNE,31,0.0,0.0,55,0.00,NA,NA,-99.99,wxupload 3.4,2013-01-08 10:02:00,
2013-01-08 05:08:00,20.1,6.0,32.34,NNE,31,0.0,0.0,54,0.00,NA,NA,-99.99,wxupload 3.4,2013-01-08 10:08:00,
2013-01-08 05:14:00,19.8,5.7,32.34,NNE,31,0.0,0.0,54,0.00,NA,NA,-99.99,wxupload 3.4,2013-01-08 10:14:00,
2013-01-08 05:20:00,19.6,5.5,32.34,NNE,31,0.0,0.0,54,0.00,NA,NA,-99.99,wxupload 3.4,2013-01-08 10:20:00,
2013-01-08 05:26:00,19.4,5.7,32.34,NNE,31,0.0,0.0,55,0.00,NA,NA,-99.99,wxupload 3.4,2013-01-08 10:26:00,
2013-01-08 05:32:00,19.4,5.7,32.34,NNE,31,0.0,0.0,55,0.00,NA,NA,-99.99,wxupload 3.4,2013-01-08 10:32:00,
2013-01-08 05:38:00,19.2,5.6,32.34,NNE,31,0.0,0.0,55,0.00,NA,NA,-99.99,wxupload 3.4,2013-01-08 10:38:00,
2013-01-08 05:44:00,19.0,5.4,32.34,NNE,31,0.0,0.0,55,0.00,NA,NA,-99.99,wxupload 3.4,2013-01-08 10:44:00,
2013-01-08 05:50:00,18.7,5.0,32.34,NNE,31,0.0,0.0,55,0.00,NA,NA,-99.99,wxupload 3.4,2013-01-08 10:50:00,
2013-01-08 05:56:00,18.7,5.0,32.34,NNE,31,0.0,0.0,55,0.00,NA,NA,-99.99,wxupload 3.4,2013-01-08 10:56:00,
2013-01-08 06:02:00,18.9,5.2,32.34,NNE,31,0.0,0.0,55,0.00,NA,NA,-99.99,wxupload 3.4,2013-01-08 11:02:00,
2013-01-08 06:08:00,18.9,5.2,32.34,NNE,31,0.0,0.0,55,0.00,NA,NA,-99.99,wxupload 3.4,2013-01-08 11:08:00,
2013-01-08 06:13:00,18.9,5.2,32.34,NNE,31,0.0,0.0,55,0.00,NA,NA,-99.99,wxupload 3.4,2013-01-08 11:13:00,
2013-01-08 06:20:00,18.7,5.0,32.34,NNE,31,0.0,0.0,55,0.00,NA,NA,-99.99,wxupload 3.4,2013-01-08 11:20:00,
2013-01-08 06:26:00,18.5,4.9,32.34,NNE,31,0.0,0.0,55,0.00,NA,NA,-99.99,wxupload 3.4,2013-01-08 11:26:00,
2013-01-08 06:32:00,18.1,4.5,32.37,NNE,31,0.0,0.0,55,0.00,NA,NA,-99.99,wxupload 3.4,2013-01-08 11:32:00,
2013-01-08 06:38:00,18.1,4.5,32.37,NNE,31,0.0,0.0,55,0.00,NA,NA,-99.99,wxupload 3.4,2013-01-08 11:38:00,
2013-01-08 06:44:00,18.3,4.7,32.37,NNE,31,0.0,0.0,55,0.00,NA,NA,-99.99,wxupload 3.4,2013-01-08 11:44:00,
2013-01-08 06:50:00,18.3,4.7,32.37,NNE,31,0.0,0.0,55,0.00,NA,NA,-99.99,wxupload 3.4,2013-01-08 11:50:00,
2013-01-08 06:56:00,18.5,4.9,32.37,NNE,31,0.0,0.0,55,0.00,NA,NA,-99.99,wxupload 3.4,2013-01-08 11:56:00,
2013-01-08 07:02:00,18.9,5.6,32.37,NNE,31,0.0,0.0,56,0.00,NA,NA,-99.99,wxupload 3.4,2013-01-08 12:02:00,
2013-01-08 07:08:00,18.5,4.9,32.37,NNE,31,0.0,0.0,55,0.00,NA,NA,-99.99,wxupload 3.4,2013-01-08 12:08:00,
2013-01-08 07:14:00,18.5,5.3,32.37,NNE,31,0.0,0.0,56,0.00,NA,NA,-99.99,wxupload 3.4,2013-01-08 12:14:00,
2013-01-08 07:20:00,18.9,5.6,32.37,NNE,31,0.0,0.0,56,0.00,NA,NA,-99.99,wxupload 3.4,2013-01-08 12:20:00,
2013-01-08 07:26:00,19.0,5.8,32.37,NNE,31,0.0,0.0,56,0.00,NA,NA,-99.99,wxupload 3.4,2013-01-08 12:26:00,
2013-01-08 07:32:00,18.9,5.2,32.37,NNE,31,0.0,0.0,55,0.00,NA,NA,-99.99,wxupload 3.4,2013-01-08 12:32:00,
2013-01-08 07:38:00,18.7,5.4,32.37,NNE,31,0.0,0.0,56,0.00,NA,NA,-99.99,wxupload 3.4,2013-01-08 12:38:00,
2013-01-08 07:44:00,18.7,5.4,32.37,NNE,31,0.0,0.0,56,0.00,NA,NA,-99.99,wxupload 3.4,2013-01-08 12:44:00,
2013-01-08 07:50:00,18.7,5.4,32.37,NNE,31,0.0,0.0,56,0.00,NA,NA,-99.99,wxupload 3.4,2013-01-08 12:50:00,
2013-01-08 07:56:00,18.5,5.3,32.37,NNE,31,0.0,0.0,56,0.00,NA,NA,-99.99,wxupload 3.4,2013-01-08 12:56:00,
2013-01-08 08:02:00,18.7,5.4,32.37,NNE,31,0.0,0.0,56,0.00,NA,NA,-99.99,wxupload 3.4,2013-01-08 13:02:00,
2013-01-08 08:08:00,19.2,6.0,32.37,NNE,31,0.0,0.0,56,0.00,NA,NA,-99.99,wxupload 3.4,2013-01-08 13:08:00,
2013-01-08 08:14:00,19.6,6.3,32.37,NNE,31,0.0,0.0,56,0.00,NA,NA,-99.99,wxupload 3.4,2013-01-08 13:14:00,
2013-01-08 08:20:00,19.6,6.3,32.37,NNE,31,0.0,0.0,56,0.00,NA,NA,-99.99,wxupload 3.4,2013-01-08 13:20:00,
2013-01-08 08:26:00,19.6,6.3,32.37,NNE,31,0.0,0.0,56,0.00,NA,NA,-99.99,wxupload 3.4,2013-01-08 13:26:00,
2013-01-08 08:32:00,19.6,6.3,32.37,NNE,31,0.0,0.0,56,0.00,NA,NA,-99.99,wxupload 3.4,2013-01-08 13:32:00,
2013-01-08 08:38:00,19.9,6.6,32.37,NNE,31,0.0,0.0,56,0.00,NA,NA,-99.99,wxupload 3.4,2013-01-08 13:38:00,
2013-01-08 08:44:00,20.3,7.4,32.37,NNE,31,0.0,0.0,57,0.00,NA,NA,-99.99,wxupload 3.4,2013-01-08 13:44:00,
2013-01-08 08:50:00,20.8,7.9,32.37,NNE,31,0.0,0.0,57,0.00,NA,NA,-99.99,wxupload 3.4,2013-01-08 13:50:00,
2013-01-08 08:56:00,21.4,8.8,32.37,NNE,31,0.0,0.0,58,0.00,NA,NA,-99.99,wxupload 3.4,2013-01-08 13:56:00,
2013-01-08 09:02:00,22.1,9.5,32.40,NNE,31,0.0,0.0,58,0.00,NA,NA,-99.99,wxupload 3.4,2013-01-08 14:02:00,
2013-01-08 09:08:00,22.6,10.0,32.40,NNE,31,0.0,0.0,58,0.00,NA,NA,-99.99,wxupload 3.4,2013-01-08 14:08:00,
2013-01-08 09:14:00,23.2,10.5,32.40,NNE,31,0.0,0.0,58,0.00,NA,NA,-99.99,wxupload 3.4,2013-01-08 14:14:00,
2013-01-08 09:20:00,23.7,11.4,32.40,NNE,31,0.0,0.0,59,0.00,NA,NA,-99.99,wxupload 3.4,2013-01-08 14:20:00,
2013-01-08 09:26:00,24.3,12.3,32.40,NNE,31,0.0,0.0,60,0.00,NA,NA,-99.99,wxupload 3.4,2013-01-08 14:26:00,
2013-01-08 09:32:00,24.8,12.8,32.37,NNE,31,0.0,0.0,60,0.00,NA,NA,-99.99,wxupload 3.4,2013-01-08 14:32:00,
2013-01-08 09:38:00,25.3,13.3,32.37,NNE,31,0.0,0.0,60,0.00,NA,NA,-99.99,wxupload 3.4,2013-01-08 14:38:00,
2013-01-08 09:44:00,25.7,13.7,32.37,NNE,31,0.0,0.0,60,0.00,NA,NA,-99.99,wxupload 3.4,2013-01-08 14:44:00,
2013-01-08 09:50:00,26.4,14.3,32.40,NNE,31,0.0,0.0,60,0.00,NA,NA,-99.99,wxupload 3.4,2013-01-08 14:50:00,
2013-01-08 09:56:00,27.0,14.9,32.40,NNE,31,0.0,0.0,60,0.00,NA,NA,-99.99,wxupload 3.4,2013-01-08 14:56:00,
2013-01-08 10:02:00,27.7,15.9,32.40,NNE,31,0.0,0.0,61,0.00,NA,NA,-99.99,wxupload 3.4,2013-01-08 15:02:00,
2013-01-08 10:08:00,28.4,16.6,32.40,NNE,31,0.0,0.0,61,0.00,NA,NA,-99.99,wxupload 3.4,2013-01-08 15:08:00,
2013-01-08 10:14:00,28.9,17.1,32.40,NNE,31,0.0,0.0,61,0.00,NA,NA,-99.99,wxupload 3.4,2013-01-08 15:14:00,
2013-01-08 10:20:00,29.8,18.4,32.37,NNE,31,0.0,0.0,62,0.00,NA,NA,-99.99,wxupload 3.4,2013-01-08 15:20:00,
2013-01-08 10:26:00,30.6,19.1,32.37,NE,55,0.0,0.0,62,0.00,NA,NA,-99.99,wxupload 3.4,2013-01-08 15:26:00,
2013-01-08 10:32:00,31.1,19.6,32.40,NE,55,0.0,0.0,62,0.00,NA,NA,-99.99,wxupload 3.4,2013-01-08 15:32:00,
2013-01-08 10:38:00,31.5,19.9,32.40,NE,55,0.0,0.0,62,0.00,NA,NA,-99.99,wxupload 3.4,2013-01-08 15:38:00,
2013-01-08 10:44:00,32.4,21.1,32.40,NE,55,0.0,0.0,63,0.00,NA,NA,-99.99,wxupload 3.4,2013-01-08 15:44:00,
2013-01-08 10:50:00,32.7,21.1,32.40,NE,55,0.0,0.0,62,0.00,NA,NA,-99.99,wxupload 3.4,2013-01-08 15:50:00,
2013-01-08 10:56:00,32.7,20.7,32.40,ENE,59,0.0,0.0,61,0.00,NA,NA,-99.99,wxupload 3.4,2013-01-08 15:56:00,
2013-01-08 11:02:00,32.7,20.7,32.37,ENE,60,0.0,0.0,61,0.00,NA,NA,-99.99,wxupload 3.4,2013-01-08 16:02:00,
2013-01-08 11:08:00,32.9,20.9,32.37,East,93,0.0,0.0,61,0.00,NA,NA,-99.99,wxupload 3.4,2013-01-08 16:08:00,
2013-01-08 11:14:00,33.1,21.1,32.37,SE,124,0.0,0.0,61,0.00,NA,NA,-99.99,wxupload 3.4,2013-01-08 16:14:00,
2013-01-08 11:20:00,33.3,21.2,32.34,SE,138,0.0,0.0,61,0.00,NA,NA,-99.99,wxupload 3.4,2013-01-08 16:20:00,
2013-01-08 11:26:00,33.8,21.8,32.34,ESE,118,0.0,0.0,61,0.00,NA,NA,-99.99,wxupload 3.4,2013-01-08 16:26:00,
2013-01-08 11:32:00,34.5,22.8,32.37,ESE,117,0.0,0.0,62,0.00,NA,NA,-99.99,wxupload 3.4,2013-01-08 16:32:00,
2013-01-08 11:38:00,35.1,23.0,32.37,ESE,118,0.0,0.0,61,0.00,NA,NA,-99.99,wxupload 3.4,2013-01-08 16:38:00,
2013-01-08 11:44:00,35.6,23.1,32.37,ESE,118,0.0,0.0,60,0.00,NA,NA,-99.99,wxupload 3.4,2013-01-08 16:44:00,
2013-01-08 11:50:00,36.1,23.6,32.37,ESE,118,0.0,0.0,60,0.00,NA,NA,-99.99,wxupload 3.4,2013-01-08 16:50:00,
2013-01-08 11:56:00,36.7,24.1,32.37,ESE,118,0.0,0.0,60,0.00,NA,NA,-99.99,wxupload 3.4,2013-01-08 16:56:00,
2013-01-08 12:02:00,37.4,24.8,32.37,ESE,118,0.0,0.0,60,0.00,NA,NA,-99.99,wxupload 3.4,2013-01-08 17:02:00,
2013-01-08 12:08:00,38.3,25.2,32.37,ESE,118,0.0,0.0,59,0.00,NA,NA,-99.99,wxupload 3.4,2013-01-08 17:08:00,
2013-01-08 12:14:00,38.7,25.2,32.37,ESE,117,0.0,0.0,58,0.00,NA,NA,-99.99,wxupload 3.4,2013-01-08 17:14:00,
2013-01-08 12:20:00,38.8,25.3,32.34,ESE,118,0.0,0.0,58,0.00,NA,NA,-99.99,wxupload 3.4,2013-01-08 17:20:00,
2013-01-08 12:26:00,39.6,25.6,32.34,ESE,116,0.0,0.0,57,0.00,NA,NA,-99.99,wxupload 3.4,2013-01-08 17:26:00,
2013-01-08 12:32:00,39.4,25.0,32.34,ESE,119,0.0,0.0,56,0.00,NA,NA,-99.99,wxupload 3.4,2013-01-08 17:32:00,
2013-01-08 12:38:00,39.0,24.7,32.34,ESE,110,0.0,0.0,56,0.00,NA,NA,-99.99,wxupload 3.4,2013-01-08 17:38:00,
2013-01-08 12:44:00,39.2,24.4,32.34,ESE,112,0.0,0.0,55,0.00,NA,NA,-99.99,wxupload 3.4,2013-01-08 17:44:00,
2013-01-08 12:50:00,39.2,24.0,32.34,East,99,0.0,2.0,54,0.00,NA,NA,-99.99,wxupload 3.4,2013-01-08 17:50:00,
2013-01-08 12:56:00,39.4,24.1,32.34,ESE,109,0.0,0.0,54,0.00,NA,NA,-99.99,wxupload 3.4,2013-01-08 17:56:00,
2013-01-08 13:02:00,39.7,24.5,32.34,South,170,0.0,0.0,54,0.00,NA,NA,-99.99,wxupload 3.4,2013-01-08 18:02:00,
2013-01-08 13:08:00,40.3,25.0,32.34,SE,124,0.0,0.0,54,0.00,NA,NA,-99.99,wxupload 3.4,2013-01-08 18:08:00,
2013-01-08 13:14:00,41.2,25.8,32.34,ENE,63,0.0,0.0,54,0.00,NA,NA,-99.99,wxupload 3.4,2013-01-08 18:14:00,
2013-01-08 13:20:00,41.9,26.0,32.34,East,96,0.0,0.0,53,0.00,NA,NA,-99.99,wxupload 3.4,2013-01-08 18:20:00,
2013-01-08 13:26:00,42.4,26.1,32.34,ESE,120,0.0,0.0,52,0.00,NA,NA,-99.99,wxupload 3.4,2013-01-08 18:26:00,
2013-01-08 13:32:00,42.1,25.3,32.34,East,92,0.0,2.0,51,0.00,NA,NA,-99.99,wxupload 3.4,2013-01-08 18:32:00,
2013-01-08 13:38:00,42.6,25.3,32.34,East,99,0.0,0.0,50,0.00,NA,NA,-99.99,wxupload 3.4,2013-01-08 18:38:00,
2013-01-08 13:44:00,42.1,24.3,32.34,East,98,0.0,0.0,49,0.00,NA,NA,-99.99,wxupload 3.4,2013-01-08 18:44:00,
2013-01-08 13:50:00,41.5,23.8,32.34,East,98,0.0,0.0,49,0.00,NA,NA,-99.99,wxupload 3.4,2013-01-08 18:50:00,
2013-01-08 13:56:00,41.0,23.3,32.34,East,99,0.0,0.0,49,0.00,NA,NA,-99.99,wxupload 3.4,2013-01-08 18:56:00,
2013-01-08 14:02:00,40.8,23.1,32.34,ESE,108,0.0,0.0,49,0.00,NA,NA,-99.99,wxupload 3.4,2013-01-08 19:02:00,
2013-01-08 14:08:00,40.6,23.5,32.34,ESE,118,0.0,2.0,50,0.00,NA,NA,-99.99,wxupload 3.4,2013-01-08 19:08:00,
2013-01-08 14:14:00,40.5,23.3,32.34,SE,135,0.0,0.0,50,0.00,NA,NA,-99.99,wxupload 3.4,2013-01-08 19:14:00,
2013-01-08 14:20:00,40.5,23.3,32.34,SE,142,0.0,0.0,50,0.00,NA,NA,-99.99,wxupload 3.4,2013-01-08 19:20:00,
2013-01-08 14:26:00,41.7,24.5,32.34,ENE,76,0.0,0.0,50,0.00,NA,NA,-99.99,wxupload 3.4,2013-01-08 19:26:00,
2013-01-08 14:32:00,42.6,24.8,32.34,ESE,117,0.0,0.0,49,0.00,NA,NA,-99.99,wxupload 3.4,2013-01-08 19:32:00,
2013-01-08 14:38:00,42.8,24.5,32.34,SE,124,0.0,0.0,48,0.00,NA,NA,-99.99,wxupload 3.4,2013-01-08 19:38:00,
2013-01-08 14:44:00,42.3,24.0,32.34,SE,125,0.0,0.0,48,0.00,NA,NA,-99.99,wxupload 3.4,2013-01-08 19:44:00,
2013-01-08 14:50:00,42.3,24.0,32.34,ENE,66,0.0,0.0,48,0.00,NA,NA,-99.99,wxupload 3.4,2013-01-08 19:50:00,
2013-01-08 14:56:00,42.1,23.3,32.34,ESE,120,0.0,0.0,47,0.00,NA,NA,-99.99,wxupload 3.4,2013-01-08 19:56:00,
2013-01-08 15:02:00,41.0,22.3,32.34,ESE,106,0.0,0.0,47,0.00,NA,NA,-99.99,wxupload 3.4,2013-01-08 20:02:00,
2013-01-08 15:08:00,41.2,23.0,32.34,ESE,109,0.0,0.0,48,0.00,NA,NA,-99.99,wxupload 3.4,2013-01-08 20:08:00,
2013-01-08 15:14:00,41.0,22.3,32.34,ESE,104,0.0,0.0,47,0.00,NA,NA,-99.99,wxupload 3.4,2013-01-08 20:14:00,
2013-01-08 15:20:00,40.8,22.6,32.34,ESE,103,0.0,0.0,48,0.00,NA,NA,-99.99,wxupload 3.4,2013-01-08 20:20:00,
2013-01-08 15:26:00,41.9,23.1,32.34,East,94,0.0,0.0,47,0.00,NA,NA,-99.99,wxupload 3.4,2013-01-08 20:26:00,
2013-01-08 15:32:00,41.4,21.6,32.34,ESE,104,0.0,0.0,45,0.00,NA,NA,-99.99,wxupload 3.4,2013-01-08 20:32:00,
2013-01-08 15:38:00,41.0,21.3,32.34,SE,136,0.0,0.0,45,0.00,NA,NA,-99.99,wxupload 3.4,2013-01-08 20:38:00,
2013-01-08 15:44:00,40.3,20.6,32.34,East,100,0.0,0.0,45,0.00,NA,NA,-99.99,wxupload 3.4,2013-01-08 20:44:00,
2013-01-08 15:50:00,39.6,20.5,32.34,SE,126,0.0,0.0,46,0.00,NA,NA,-99.99,wxupload 3.4,2013-01-08 20:50:00,
2013-01-08 15:56:00,39.2,20.1,32.34,East,96,0.0,0.0,46,0.00,NA,NA,-99.99,wxupload 3.4,2013-01-08 20:56:00,
2013-01-08 16:02:00,39.6,21.0,32.34,South,184,0.0,0.0,47,0.00,NA,NA,-99.99,wxupload 3.4,2013-01-08 21:02:00,
2013-01-08 16:08:00,39.4,20.8,32.34,ESE,122,0.0,0.0,47,0.00,NA,NA,-99.99,wxupload 3.4,2013-01-08 21:08:00,
2013-01-08 16:14:00,39.0,21.0,32.34,SE,126,0.0,0.0,48,0.00,NA,NA,-99.99,wxupload 3.4,2013-01-08 21:14:00,
2013-01-08 16:20:00,38.7,20.6,32.37,SE,136,0.0,0.0,48,0.00,NA,NA,-99.99,wxupload 3.4,2013-01-08 21:20:00,
2013-01-08 16:26:00,38.1,20.1,32.37,SE,128,0.0,0.0,48,0.00,NA,NA,-99.99,wxupload 3.4,2013-01-08 21:26:00,
2013-01-08 16:32:00,37.9,20.5,32.37,SE,128,0.0,0.0,49,0.00,NA,NA,-99.99,wxupload 3.4,2013-01-08 21:32:00,
2013-01-08 16:38:00,37.4,20.0,32.37,SE,128,0.0,0.0,49,0.00,NA,NA,-99.99,wxupload 3.4,2013-01-08 21:38:00,
2013-01-08 16:44:00,37.4,20.0,32.37,SE,128,0.0,0.0,49,0.00,NA,NA,-99.99,wxupload 3.4,2013-01-08 21:44:00,
2013-01-08 16:50:00,37.0,20.1,32.37,SE,128,0.0,0.0,50,0.00,NA,NA,-99.99,wxupload 3.4,2013-01-08 21:50:00,
2013-01-08 16:56:00,37.0,20.1,32.37,SE,128,0.0,0.0,50,0.00,NA,NA,-99.99,wxupload 3.4,2013-01-08 21:56:00,
2013-01-08 17:02:00,37.4,20.4,32.37,SE,128,0.0,0.0,50,0.00,NA,NA,-99.99,wxupload 3.4,2013-01-08 22:02:00,
2013-01-08 17:08:00,36.9,19.9,32.37,ESE,106,0.0,0.0,50,0.00,NA,NA,-99.99,wxupload 3.4,2013-01-08 22:08:00,
2013-01-08 17:14:00,36.3,19.4,32.37,East,101,0.0,0.0,50,0.00,NA,NA,-99.99,wxupload 3.4,2013-01-08 22:14:00,
2013-01-08 17:20:00,35.8,18.9,32.37,SE,136,0.0,0.0,50,0.00,NA,NA,-99.99,wxupload 3.4,2013-01-08 22:20:00,
2013-01-08 17:26:00,35.8,18.9,32.37,ESE,114,0.0,0.0,50,0.00,NA,NA,-99.99,wxupload 3.4,2013-01-08 22:26:00,
2013-01-08 17:32:00,35.6,19.2,32.37,ESE,115,0.0,0.0,51,0.00,NA,NA,-99.99,wxupload 3.4,2013-01-08 22:32:00,
2013-01-08 17:38:00,36.0,19.6,32.37,ESE,115,0.0,0.0,51,0.00,NA,NA,-99.99,wxupload 3.4,2013-01-08 22:38:00,
2013-01-08 17:44:00,36.0,19.6,32.37,ESE,115,0.0,0.0,51,0.00,NA,NA,-99.99,wxupload 3.4,2013-01-08 22:44:00,
2013-01-08 17:50:00,35.4,19.1,32.37,ESE,115,0.0,0.0,51,0.00,NA,NA,-99.99,wxupload 3.4,2013-01-08 22:50:00,
2013-01-08 17:56:00,35.1,18.7,32.37,ESE,121,0.0,0.0,51,0.00,NA,NA,-99.99,wxupload 3.4,2013-01-08 22:56:00,
2013-01-08 18:02:00,34.5,18.2,32.40,SE,145,0.0,0.0,51,0.00,NA,NA,-99.99,wxupload 3.4,2013-01-08 23:02:00,
2013-01-08 18:08:00,34.3,18.0,32.40,South,189,0.0,0.0,51,0.00,NA,NA,-99.99,wxupload 3.4,2013-01-08 23:08:00,
2013-01-08 18:14:00,34.0,17.7,32.40,South,189,0.0,0.0,51,0.00,NA,NA,-99.99,wxupload 3.4,2013-01-08 23:14:00,
2013-01-08 18:20:00,33.8,17.5,32.40,South,189,0.0,0.0,51,0.00,NA,NA,-99.99,wxupload 3.4,2013-01-08 23:20:00,
2013-01-08 18:26:00,33.6,17.8,32.40,South,189,0.0,0.0,52,0.00,NA,NA,-99.99,wxupload 3.4,2013-01-08 23:26:00,
2013-01-08 18:32:00,33.6,17.8,32.40,South,189,0.0,0.0,52,0.00,NA,NA,-99.99,wxupload 3.4,2013-01-08 23:32:00,
2013-01-08 18:38:00,33.3,17.5,32.40,South,189,0.0,0.0,52,0.00,NA,NA,-99.99,wxupload 3.4,2013-01-08 23:38:00,
2013-01-08 18:44:00,32.9,17.1,32.40,South,189,0.0,0.0,52,0.00,NA,NA,-99.99,wxupload 3.4,2013-01-08 23:44:00,
2013-01-08 18:50:00,32.7,17.4,32.40,South,189,0.0,0.0,53,0.00,NA,NA,-99.99,wxupload 3.4,2013-01-08 23:50:00,
2013-01-08 18:56:00,32.7,17.4,32.40,South,189,0.0,0.0,53,0.00,NA,NA,-99.99,wxupload 3.4,2013-01-08 23:56:00,
2013-01-08 19:02:00,32.5,17.3,32.37,South,189,0.0,0.0,53,0.00,NA,NA,-99.99,wxupload 3.4,2013-01-09 00:02:00,
2013-01-08 19:08:00,32.4,17.1,32.37,South,189,0.0,0.0,53,0.00,NA,NA,-99.99,wxupload 3.4,2013-01-09 00:08:00,
2013-01-08 19:14:00,32.0,16.7,32.37,South,189,0.0,0.0,53,0.00,NA,NA,-99.99,wxupload 3.4,2013-01-09 00:14:00,
2013-01-08 19:20:00,32.2,17.4,32.37,South,189,0.0,0.0,54,0.00,NA,NA,-99.99,wxupload 3.4,2013-01-09 00:20:00,
2013-01-08 19:26:00,32.0,17.2,32.37,South,189,0.0,0.0,54,0.00,NA,NA,-99.99,wxupload 3.4,2013-01-09 00:26:00,
2013-01-08 19:32:00,31.6,16.4,32.37,South,189,0.0,0.0,53,0.00,NA,NA,-99.99,wxupload 3.4,2013-01-09 00:32:00,
2013-01-08 19:38:00,31.1,16.3,32.37,South,189,0.0,0.0,54,0.00,NA,NA,-99.99,wxupload 3.4,2013-01-09 00:38:00,
2013-01-08 19:44:00,30.9,16.2,32.37,South,189,0.0,0.0,54,0.00,NA,NA,-99.99,wxupload 3.4,2013-01-09 00:44:00,
2013-01-08 19:50:00,30.9,16.2,32.37,South,189,0.0,0.0,54,0.00,NA,NA,-99.99,wxupload 3.4,2013-01-09 00:50:00,
2013-01-08 19:56:00,30.6,15.8,32.37,South,189,0.0,0.0,54,0.00,NA,NA,-99.99,wxupload 3.4,2013-01-09 00:56:00,
2013-01-08 20:02:00,30.4,15.7,32.37,South,189,0.0,0.0,54,0.00,NA,NA,-99.99,wxupload 3.4,2013-01-09 01:02:00,
2013-01-08 20:08:00,30.0,15.7,32.37,South,189,0.0,0.0,55,0.00,NA,NA,-99.99,wxupload 3.4,2013-01-09 01:08:00,
2013-01-08 20:14:00,29.8,15.6,32.37,South,189,0.0,0.0,55,0.00,NA,NA,-99.99,wxupload 3.4,2013-01-09 01:14:00,
2013-01-08 20:20:00,29.5,15.2,32.37,South,189,0.0,0.0,55,0.00,NA,NA,-99.99,wxupload 3.4,2013-01-09 01:20:00,
2013-01-08 20:26:00,29.5,15.2,32.37,South,189,0.0,0.0,55,0.00,NA,NA,-99.99,wxupload 3.4,2013-01-09 01:26:00,
2013-01-08 20:32:00,29.5,15.2,32.37,South,189,0.0,0.0,55,0.00,NA,NA,-99.99,wxupload 3.4,2013-01-09 01:32:00,
2013-01-08 20:38:00,29.3,15.1,32.37,South,189,0.0,0.0,55,0.00,NA,NA,-99.99,wxupload 3.4,2013-01-09 01:38:00,
2013-01-08 20:44:00,29.1,14.9,32.37,South,189,0.0,0.0,55,0.00,NA,NA,-99.99,wxupload 3.4,2013-01-09 01:44:00,
2013-01-08 20:50:00,28.9,14.7,32.40,South,189,0.0,0.0,55,0.00,NA,NA,-99.99,wxupload 3.4,2013-01-09 01:50:00,
2013-01-08 20:56:00,28.8,15.0,32.40,South,189,0.0,0.0,56,0.00,NA,NA,-99.99,wxupload 3.4,2013-01-09 01:56:00,
2013-01-08 21:02:00,28.8,15.0,32.40,South,189,0.0,0.0,56,0.00,NA,NA,-99.99,wxupload 3.4,2013-01-09 02:02:00,
2013-01-08 21:08:00,28.6,14.8,32.40,South,189,0.0,0.0,56,0.00,NA,NA,-99.99,wxupload 3.4,2013-01-09 02:08:00,
2013-01-08 21:14:00,28.6,14.8,32.40,South,189,0.0,0.0,56,0.00,NA,NA,-99.99,wxupload 3.4,2013-01-09 02:14:00,
2013-01-08 21:20:00,28.6,14.8,32.40,South,189,0.0,0.0,56,0.00,NA,NA,-99.99,wxupload 3.4,2013-01-09 02:20:00,
2013-01-08 21:26:00,28.4,15.0,32.40,South,189,0.0,0.0,57,0.00,NA,NA,-99.99,wxupload 3.4,2013-01-09 02:26:00,
2013-01-08 21:32:00,28.4,15.0,32.40,South,189,0.0,0.0,57,0.00,NA,NA,-99.99,wxupload 3.4,2013-01-09 02:32:00,
2013-01-08 21:38:00,28.4,15.0,32.40,South,189,0.0,0.0,57,0.00,NA,NA,-99.99,wxupload 3.4,2013-01-09 02:38:00,
2013-01-08 21:44:00,28.4,15.0,32.40,South,189,0.0,0.0,57,0.00,NA,NA,-99.99,wxupload 3.4,2013-01-09 02:44:00,
2013-01-08 21:50:00,28.2,14.9,32.40,South,189,0.0,0.0,57,0.00,NA,NA,-99.99,wxupload 3.4,2013-01-09 02:50:00,
2013-01-08 21:56:00,28.0,14.7,32.40,South,189,0.0,0.0,57,0.00,NA,NA,-99.99,wxupload 3.4,2013-01-09 02:56:00,
2013-01-08 22:02:00,27.9,14.5,32.37,South,189,0.0,0.0,57,0.00,NA,NA,-99.99,wxupload 3.4,2013-01-09 03:02:00,
2013-01-08 22:08:00,27.9,14.5,32.37,South,189,0.0,0.0,57,0.00,NA,NA,-99.99,wxupload 3.4,2013-01-09 03:08:00,
2013-01-08 22:14:00,27.7,14.4,32.37,South,189,0.0,0.0,57,0.00,NA,NA,-99.99,wxupload 3.4,2013-01-09 03:14:00,
2013-01-08 22:20:00,27.5,14.2,32.40,South,189,0.0,0.0,57,0.00,NA,NA,-99.99,wxupload 3.4,2013-01-09 03:20:00,
2013-01-08 22:26:00,27.3,14.0,32.40,South,189,0.0,0.0,57,0.00,NA,NA,-99.99,wxupload 3.4,2013-01-09 03:26:00,
2013-01-08 22:32:00,27.1,13.9,32.40,South,189,0.0,0.0,57,0.00,NA,NA,-99.99,wxupload 3.4,2013-01-09 03:32:00,
2013-01-08 22:38:00,27.0,13.7,32.37,South,189,0.0,0.0,57,0.00,NA,NA,-99.99,wxupload 3.4,2013-01-09 03:38:00,
2013-01-08 22:44:00,26.8,13.5,32.37,South,189,0.0,0.0,57,0.00,NA,NA,-99.99,wxupload 3.4,2013-01-09 03:44:00,
2013-01-08 22:50:00,26.8,13.5,32.37,South,189,0.0,0.0,57,0.00,NA,NA,-99.99,wxupload 3.4,2013-01-09 03:50:00,
2013-01-08 22:56:00,27.0,14.1,32.37,South,189,0.0,0.0,58,0.00,NA,NA,-99.99,wxupload 3.4,2013-01-09 03:56:00,
2013-01-08 23:02:00,26.8,13.9,32.37,South,189,0.0,0.0,58,0.00,NA,NA,-99.99,wxupload 3.4,2013-01-09 04:02:00,
2013-01-08 23:08:00,26.4,13.6,32.37,South,189,0.0,0.0,58,0.00,NA,NA,-99.99,wxupload 3.4,2013-01-09 04:08:00,
2013-01-08 23:14:00,26.2,13.4,32.37,South,189,0.0,0.0,58,0.00,NA,NA,-99.99,wxupload 3.4,2013-01-09 04:14:00,
2013-01-08 23:20:00,26.2,13.4,32.37,South,189,0.0,0.0,58,0.00,NA,NA,-99.99,wxupload 3.4,2013-01-09 04:20:00,
2013-01-08 23:26:00,26.4,13.6,32.37,South,189,0.0,0.0,58,0.00,NA,NA,-99.99,wxupload 3.4,2013-01-09 04:26:00,
2013-01-08 23:32:00,26.1,13.2,32.37,South,189,0.0,0.0,58,0.00,NA,NA,-99.99,wxupload 3.4,2013-01-09 04:32:00,
2013-01-08 23:38:00,26.1,13.2,32.37,South,189,0.0,0.0,58,0.00,NA,NA,-99.99,wxupload 3.4,2013-01-09 04:38:00,
2013-01-08 23:44:00,25.9,13.1,32.37,South,189,0.0,0.0,58,0.00,NA,NA,-99.99,wxupload 3.4,2013-01-09 04:44:00,
2013-01-08 23:50:00,25.9,13.1,32.37,South,189,0.0,0.0,58,0.00,NA,NA,-99.99,wxupload 3.4,2013-01-09 04:50:00,
2013-01-08 23:56:00,26.1,13.2,32.37,South,189,0.0,0.0,58,0.00,NA,NA,-99.99,wxupload 3.4,2013-01-09 04:56:00,